createdAt,value
2023-03-31T00:01:06.786Z,45.89
2023-03-31T00:03:34.307Z,46.00
2023-03-31T00:06:01.171Z,45.51
2023-03-31T00:08:35.731Z,45.53
2023-03-31T00:11:04.950Z,45.89
2023-03-31T00:13:31.544Z,45.61
2023-03-31T00:16:01.090Z,45.69
2023-03-31T00:18:28.360Z,45.62
2023-03-31T00:20:54.729Z,45.30
2023-03-31T00:23:28.883Z,45.49
2023-03-31T00:25:55.794Z,45.35
2023-03-31T00:28:22.387Z,45.15
2023-03-31T00:30:49.548Z,45.18
2023-03-31T00:33:15.837Z,45.56
2023-03-31T00:35:43.844Z,45.09
2023-03-31T00:38:13.885Z,45.46
2023-03-31T00:40:46.556Z,45.63
2023-03-31T00:43:39.200Z,45.62
2023-03-31T00:46:17.930Z,45.51
2023-03-31T00:48:51.532Z,45.77
2023-03-31T00:51:20.159Z,45.72
2023-03-31T00:53:55.568Z,45.29
2023-03-31T00:56:22.245Z,45.59
2023-03-31T00:58:50.053Z,45.55
2023-03-31T01:01:20.651Z,45.98
2023-03-31T01:03:48.013Z,45.86
2023-03-31T01:06:19.752Z,45.79
2023-03-31T01:08:49.109Z,46.00
2023-03-31T01:11:19.028Z,45.89
2023-03-31T01:13:49.992Z,45.60
2023-03-31T01:16:18.343Z,45.93
2023-03-31T01:18:49.594Z,45.71
2023-03-31T01:21:59.878Z,45.72
2023-03-31T01:24:39.143Z,45.02
2023-03-31T01:27:22.283Z,45.84
2023-03-31T01:30:19.864Z,46.01
2023-03-31T01:33:13.872Z,46.23
2023-03-31T01:36:24.430Z,46.10
2023-03-31T01:39:15.068Z,45.65
2023-03-31T01:42:08.433Z,46.28
2023-03-31T01:44:45.424Z,46.19
2023-03-31T01:47:23.028Z,46.07
2023-03-31T01:50:08.423Z,46.45
2023-03-31T01:52:44.641Z,46.57
2023-03-31T01:55:31.698Z,46.85
2023-03-31T01:58:06.810Z,46.59
2023-03-31T02:00:42.201Z,47.02
2023-03-31T02:03:18.152Z,47.70
2023-03-31T02:05:51.402Z,47.36
2023-03-31T02:08:25.062Z,47.52
2023-03-31T02:10:53.161Z,47.45
2023-03-31T02:13:23.323Z,47.43
2023-03-31T02:15:57.915Z,48.00
2023-03-31T02:18:30.714Z,47.82
2023-03-31T02:20:59.087Z,47.53
2023-03-31T02:23:29.532Z,48.05
2023-03-31T02:26:05.193Z,48.55
2023-03-31T02:28:32.006Z,48.11
2023-03-31T02:31:33.264Z,48.76
2023-03-31T02:34:01.310Z,47.69
2023-03-31T02:36:27.985Z,48.14
2023-03-31T02:38:59.523Z,47.95
2023-03-31T02:41:26.089Z,47.71
2023-03-31T02:43:52.493Z,47.99
2023-03-31T02:46:19.356Z,48.58
2023-03-31T02:48:51.598Z,48.66
2023-03-31T02:51:47.651Z,49.08
2023-03-31T02:54:37.158Z,48.38
2023-03-31T02:57:25.974Z,48.80
2023-03-31T03:00:09.563Z,48.78
2023-03-31T03:02:58.134Z,48.63
2023-03-31T03:05:50.009Z,49.07
2023-03-31T03:08:32.599Z,49.01
2023-03-31T03:10:58.849Z,47.95
2023-03-31T03:13:41.246Z,49.12
2023-03-31T03:16:19.196Z,48.96
2023-03-31T03:18:56.317Z,49.00
2023-03-31T03:21:22.802Z,48.65
2023-03-31T03:23:49.141Z,48.42
2023-03-31T03:26:21.247Z,48.58
2023-03-31T03:28:49.184Z,48.34
2023-03-31T03:31:15.853Z,48.17
2023-03-31T03:33:42.859Z,48.34
2023-03-31T03:36:11.246Z,48.73
2023-03-31T03:38:37.757Z,48.44
2023-03-31T03:41:04.481Z,48.45
2023-03-31T03:43:31.245Z,49.01
2023-03-31T03:45:57.852Z,48.66
2023-03-31T03:48:24.416Z,48.54
2023-03-31T03:50:51.234Z,48.47
2023-03-31T03:53:17.583Z,48.51
2023-03-31T03:55:45.183Z,48.92
2023-03-31T03:58:11.594Z,48.80
2023-03-31T04:00:37.936Z,48.64
2023-03-31T04:03:04.325Z,48.64
2023-03-31T04:05:30.708Z,48.59
2023-03-31T04:07:57.331Z,49.13
2023-03-31T04:10:23.629Z,49.12
2023-03-31T04:12:50.446Z,49.20
2023-03-31T04:15:17.011Z,49.06
2023-03-31T04:17:50.816Z,49.12
2023-03-31T04:20:17.624Z,48.68
2023-03-31T04:22:47.234Z,48.80
2023-03-31T04:25:17.201Z,48.96
2023-03-31T04:27:50.622Z,48.95
2023-03-31T04:30:23.096Z,49.11
2023-03-31T04:32:55.544Z,49.69
2023-03-31T04:35:24.320Z,49.36
2023-03-31T04:37:52.483Z,48.98
2023-03-31T04:40:19.673Z,48.78
2023-03-31T04:42:46.285Z,48.61
2023-03-31T04:45:13.281Z,48.55
2023-03-31T04:47:39.745Z,48.91
2023-03-31T04:50:06.920Z,48.69
2023-03-31T04:52:33.304Z,48.88
2023-03-31T04:54:59.603Z,48.78
2023-03-31T04:57:25.992Z,48.95
2023-03-31T04:59:52.629Z,48.51
2023-03-31T05:02:25.298Z,48.31
2023-03-31T05:04:52.330Z,48.36
2023-03-31T05:07:19.311Z,48.72
2023-03-31T05:09:46.388Z,48.49
2023-03-31T05:12:12.761Z,48.57
2023-03-31T05:14:39.384Z,48.42
2023-03-31T05:17:06.108Z,48.20
2023-03-31T05:19:32.850Z,48.54
2023-03-31T05:21:59.334Z,48.62
2023-03-31T05:24:28.393Z,48.23
2023-03-31T05:26:55.805Z,48.49
2023-03-31T05:29:22.157Z,48.49
2023-03-31T05:31:48.496Z,48.45
2023-03-31T05:34:15.722Z,48.80
2023-03-31T05:36:43.697Z,48.54
2023-03-31T05:39:10.211Z,48.38
2023-03-31T05:41:36.593Z,48.93
2023-03-31T05:44:03.192Z,48.79
2023-03-31T05:46:29.628Z,48.95
2023-03-31T05:48:56.506Z,48.43
2023-03-31T05:51:23.253Z,48.62
2023-03-31T05:53:49.746Z,48.82
2023-03-31T05:56:16.289Z,49.09
2023-03-31T05:58:42.656Z,48.80
2023-03-31T06:01:19.391Z,49.36
2023-03-31T06:03:46.770Z,49.07
2023-03-31T06:06:14.736Z,48.66
2023-03-31T06:08:41.398Z,48.99
2023-03-31T06:11:11.468Z,48.68
2023-03-31T06:13:39.517Z,49.26
2023-03-31T06:16:06.965Z,49.17
2023-03-31T06:18:35.774Z,48.62
2023-03-31T06:21:02.778Z,48.52
2023-03-31T06:23:29.576Z,48.58
2023-03-31T06:26:03.413Z,49.05
2023-03-31T06:28:29.830Z,48.61
2023-03-31T06:31:01.167Z,49.14
2023-03-31T06:33:27.653Z,48.39
2023-03-31T06:35:57.540Z,48.89
2023-03-31T06:38:24.803Z,48.68
2023-03-31T06:40:51.498Z,48.61
2023-03-31T06:43:17.835Z,48.53
2023-03-31T06:45:44.476Z,48.50
2023-03-31T06:48:11.187Z,47.92
2023-03-31T06:50:38.679Z,48.01
2023-03-31T06:53:05.695Z,48.03
2023-03-31T06:55:33.966Z,48.14
2023-03-31T06:58:00.687Z,48.18
2023-03-31T07:00:27.373Z,47.87
2023-03-31T07:02:54.758Z,47.86
2023-03-31T07:05:27.266Z,47.81
2023-03-31T07:07:57.416Z,47.77
2023-03-31T07:10:26.093Z,47.62
2023-03-31T07:12:52.623Z,47.85
2023-03-31T07:15:19.480Z,47.61
2023-03-31T07:17:45.885Z,48.06
2023-03-31T07:20:17.730Z,47.74
2023-03-31T07:22:45.945Z,47.79
2023-03-31T07:25:15.969Z,48.05
2023-03-31T07:27:43.020Z,48.26
2023-03-31T07:30:16.736Z,48.43
2023-03-31T07:32:47.514Z,48.57
2023-03-31T07:35:13.939Z,48.20
2023-03-31T07:37:43.440Z,48.55
2023-03-31T07:40:13.229Z,48.56
2023-03-31T07:42:39.632Z,48.63
2023-03-31T07:45:09.168Z,48.55
2023-03-31T07:47:36.412Z,49.04
2023-03-31T07:50:03.511Z,48.99
2023-03-31T07:52:30.100Z,48.85
2023-03-31T07:54:56.470Z,49.16
2023-03-31T07:57:22.904Z,48.87
2023-03-31T07:59:49.677Z,49.16
2023-03-31T08:02:19.460Z,49.36
2023-03-31T08:04:47.150Z,49.47
2023-03-31T08:07:15.296Z,49.14
2023-03-31T08:09:44.386Z,49.28
2023-03-31T08:12:11.289Z,49.05
2023-03-31T08:14:41.295Z,49.10
2023-03-31T08:17:08.477Z,49.36
2023-03-31T08:19:34.841Z,49.29
2023-03-31T08:22:01.242Z,49.25
2023-03-31T08:24:27.542Z,49.81
2023-03-31T08:26:54.701Z,49.29
2023-03-31T08:29:21.314Z,49.66
2023-03-31T08:31:48.417Z,49.89
2023-03-31T08:34:16.140Z,49.69
2023-03-31T08:36:42.935Z,49.65
2023-03-31T08:39:21.458Z,49.74
2023-03-31T08:42:00.324Z,50.13
2023-03-31T08:44:51.244Z,50.03
2023-03-31T08:47:24.433Z,49.88
2023-03-31T08:49:56.974Z,49.75
2023-03-31T08:52:29.200Z,49.93
2023-03-31T08:54:59.871Z,49.81
2023-03-31T08:57:31.704Z,49.81
2023-03-31T09:00:07.020Z,49.52
2023-03-31T09:02:52.813Z,49.83
2023-03-31T09:05:45.938Z,49.73
2023-03-31T09:08:36.079Z,49.30
2023-03-31T09:11:13.145Z,49.11
2023-03-31T09:14:04.406Z,49.20
2023-03-31T09:16:59.951Z,49.04
2023-03-31T09:19:41.888Z,49.36
2023-03-31T09:22:45.106Z,49.66
2023-03-31T09:25:16.567Z,49.15
2023-03-31T09:27:45.070Z,49.33
2023-03-31T09:30:21.960Z,49.53
2023-03-31T09:32:52.440Z,49.28
2023-03-31T09:35:29.121Z,49.69
2023-03-31T09:37:55.783Z,49.09
2023-03-31T09:40:25.416Z,49.73
2023-03-31T09:43:14.231Z,50.19
2023-03-31T09:45:40.807Z,50.25
2023-03-31T09:48:16.654Z,50.79
2023-03-31T09:50:52.168Z,50.55
2023-03-31T09:53:28.447Z,50.40
2023-03-31T09:56:00.542Z,50.10
2023-03-31T09:58:27.094Z,50.19
2023-03-31T10:01:01.676Z,50.45
2023-03-31T10:03:30.877Z,50.58
2023-03-31T10:06:00.714Z,50.49
2023-03-31T10:08:32.556Z,50.89
2023-03-31T10:11:01.925Z,50.42
2023-03-31T10:14:03.997Z,51.07
2023-03-31T10:16:32.638Z,50.48
2023-03-31T10:19:11.688Z,50.11
2023-03-31T10:21:38.833Z,49.56
2023-03-31T10:24:10.474Z,49.31
2023-03-31T10:26:37.826Z,49.25
2023-03-31T10:29:12.860Z,49.45
2023-03-31T10:31:39.962Z,49.37
2023-03-31T10:34:09.583Z,49.25
2023-03-31T10:36:36.229Z,49.17
2023-03-31T10:39:07.702Z,49.20
2023-03-31T10:41:34.230Z,49.29
2023-03-31T10:44:07.300Z,49.57
2023-03-31T10:46:48.922Z,49.30
2023-03-31T10:49:21.238Z,49.59
2023-03-31T10:51:56.044Z,49.39
2023-03-31T10:54:22.628Z,49.43
2023-03-31T10:56:53.882Z,49.37
2023-03-31T10:59:41.342Z,49.38
2023-03-31T11:03:02.686Z,49.51
2023-03-31T11:05:51.337Z,48.96
2023-03-31T11:08:46.915Z,48.63
2023-03-31T11:11:16.451Z,48.46
2023-03-31T11:14:13.292Z,48.54
2023-03-31T11:17:09.819Z,48.38
2023-03-31T11:19:58.901Z,48.50
2023-03-31T11:22:34.675Z,48.37
2023-03-31T11:25:16.818Z,48.07
2023-03-31T11:27:58.609Z,47.88
2023-03-31T11:30:47.387Z,48.48
2023-03-31T11:33:38.201Z,48.73
2023-03-31T11:36:46.703Z,48.26
2023-03-31T11:39:37.014Z,48.65
2023-03-31T11:42:08.534Z,48.26
2023-03-31T11:44:43.800Z,47.98
2023-03-31T11:47:18.552Z,48.24
2023-03-31T11:49:54.155Z,47.96
2023-03-31T11:52:35.175Z,47.75
2023-03-31T11:55:16.532Z,46.91
2023-03-31T11:57:51.339Z,46.82
2023-03-31T12:00:22.810Z,44.82
2023-03-31T12:02:58.418Z,44.06
2023-03-31T12:05:28.131Z,44.66
2023-03-31T12:08:05.852Z,45.13
2023-03-31T12:10:41.845Z,45.45
2023-03-31T12:13:22.003Z,46.32
2023-03-31T12:16:01.364Z,46.49
2023-03-31T12:18:31.646Z,47.03
2023-03-31T12:21:02.540Z,47.60
2023-03-31T12:23:34.223Z,47.64
2023-03-31T12:26:22.944Z,48.00
2023-03-31T12:28:55.815Z,48.20
2023-03-31T12:31:24.763Z,48.47
2023-03-31T12:34:05.027Z,48.65
2023-03-31T12:36:43.326Z,48.78
2023-03-31T12:39:37.717Z,49.40
2023-03-31T12:42:43.030Z,49.15
2023-03-31T12:45:31.775Z,49.24
2023-03-31T12:48:20.281Z,49.42
2023-03-31T12:51:20.239Z,49.23
2023-03-31T12:54:18.733Z,49.43
2023-03-31T12:57:00.552Z,49.33
2023-03-31T12:59:33.187Z,49.17
2023-03-31T13:02:15.356Z,48.85
2023-03-31T13:04:43.243Z,48.66
2023-03-31T13:07:33.303Z,48.44
2023-03-31T13:10:26.082Z,48.50
2023-03-31T13:13:02.690Z,47.67
2023-03-31T13:15:32.499Z,47.90
2023-03-31T13:18:19.767Z,47.74
2023-03-31T13:20:46.474Z,47.96
2023-03-31T13:23:22.574Z,47.24
2023-03-31T13:25:51.312Z,47.18
2023-03-31T13:28:42.349Z,47.16
2023-03-31T13:31:14.792Z,47.72
2023-03-31T13:33:44.427Z,47.44
2023-03-31T13:36:33.140Z,48.33
2023-03-31T13:39:30.659Z,48.38
2023-03-31T13:42:29.765Z,48.71
2023-03-31T13:45:20.782Z,48.14
2023-03-31T13:48:04.181Z,48.29
2023-03-31T13:50:49.114Z,47.97
2023-03-31T13:53:39.879Z,47.72
2023-03-31T13:56:14.072Z,48.08
2023-03-31T13:59:31.540Z,48.28
2023-03-31T14:02:35.372Z,48.01
2023-03-31T14:05:37.153Z,47.42
2023-03-31T14:08:12.157Z,47.05
2023-03-31T14:10:40.913Z,46.80
2023-03-31T14:13:10.384Z,47.14
2023-03-31T14:15:42.297Z,46.86
2023-03-31T14:18:13.692Z,47.23
2023-03-31T14:20:59.850Z,47.10
2023-03-31T14:23:35.227Z,46.89
2023-03-31T14:26:30.260Z,46.65
2023-03-31T14:29:11.450Z,46.97
2023-03-31T14:31:49.988Z,46.57
2023-03-31T14:34:34.550Z,46.73
2023-03-31T14:37:04.778Z,46.74
2023-03-31T14:39:35.458Z,46.58
2023-03-31T14:42:11.321Z,46.66
2023-03-31T14:44:42.738Z,46.58
2023-03-31T14:47:15.432Z,46.70
2023-03-31T14:49:42.289Z,46.95
2023-03-31T14:52:18.507Z,47.14
2023-03-31T14:54:47.730Z,46.79
2023-03-31T14:57:28.745Z,46.63
2023-03-31T14:59:55.697Z,46.46
2023-03-31T15:02:37.514Z,46.28
2023-03-31T15:05:07.860Z,46.43
2023-03-31T15:07:34.906Z,46.30
2023-03-31T15:10:02.667Z,46.41
2023-03-31T15:12:29.737Z,46.06
2023-03-31T15:15:03.858Z,45.95
2023-03-31T15:17:36.506Z,46.01
2023-03-31T15:20:37.618Z,46.04
2023-03-31T15:23:21.637Z,46.07
2023-03-31T15:25:48.510Z,45.75
2023-03-31T15:28:17.663Z,45.67
2023-03-31T15:30:47.660Z,45.78
2023-03-31T15:33:22.549Z,45.71
2023-03-31T15:35:49.303Z,45.82
2023-03-31T15:38:18.409Z,45.62
2023-03-31T15:40:49.433Z,45.29
2023-03-31T15:46:02.250Z,44.38
2023-03-31T15:48:36.785Z,44.40
2023-03-31T15:51:41.117Z,44.29
2023-03-31T15:54:34.884Z,43.91
2023-03-31T15:57:04.179Z,44.11
2023-03-31T15:59:54.829Z,43.70
2023-03-31T16:02:25.794Z,43.95
2023-03-31T16:04:57.101Z,44.30
2023-03-31T16:07:28.546Z,43.94
2023-03-31T16:10:17.555Z,44.45
2023-03-31T16:12:50.690Z,45.05
2023-03-31T16:15:23.799Z,44.84
2023-03-31T16:18:02.099Z,45.12
2023-03-31T16:20:40.633Z,45.68
2023-03-31T16:23:18.427Z,45.65
2023-03-31T16:25:46.029Z,45.89
2023-03-31T16:28:22.491Z,47.14
2023-03-31T16:30:49.505Z,46.93
2023-03-31T16:33:18.840Z,47.44
2023-03-31T16:35:55.906Z,47.59
2023-03-31T16:38:24.785Z,47.75
2023-03-31T16:40:54.096Z,47.68
2023-03-31T16:43:23.447Z,47.92
2023-03-31T16:45:55.477Z,47.92
2023-03-31T16:48:25.686Z,48.14
2023-03-31T16:50:54.437Z,47.67
2023-03-31T16:53:30.084Z,47.87
2023-03-31T16:55:58.249Z,47.64
2023-03-31T16:58:26.159Z,47.49
2023-03-31T17:00:53.266Z,47.75
2023-03-31T17:03:20.502Z,47.57
2023-03-31T17:05:51.404Z,47.62
2023-03-31T17:08:18.642Z,47.09
2023-03-31T17:10:59.621Z,47.87
2023-03-31T17:13:26.492Z,47.26
2023-03-31T17:18:39.997Z,47.48
2023-03-31T17:21:08.936Z,47.71
2023-03-31T17:23:36.525Z,47.44
2023-03-31T17:26:04.189Z,47.34
2023-03-31T17:28:31.444Z,47.32
2023-03-31T17:30:58.528Z,47.13
2023-03-31T17:33:25.830Z,47.06
2023-03-31T17:35:56.809Z,47.21
2023-03-31T17:38:23.159Z,47.46
2023-03-31T17:40:49.716Z,47.20
2023-03-31T17:43:16.610Z,47.21
2023-03-31T17:45:42.998Z,47.17
2023-03-31T17:48:10.109Z,47.48
2023-03-31T17:50:38.284Z,47.24
2023-03-31T17:53:09.062Z,47.48
2023-03-31T17:55:38.211Z,47.54
2023-03-31T17:58:06.431Z,47.25
2023-03-31T18:00:33.025Z,47.34
2023-03-31T18:02:59.456Z,47.19
2023-03-31T18:05:26.090Z,47.28
2023-03-31T18:07:53.470Z,47.59
2023-03-31T18:10:20.283Z,47.32
2023-03-31T18:12:46.790Z,47.12
2023-03-31T18:15:13.349Z,47.01
2023-03-31T18:17:39.703Z,46.97
2023-03-31T18:20:06.592Z,47.11
2023-03-31T18:22:32.936Z,47.08
2023-03-31T18:24:59.361Z,47.56
2023-03-31T18:27:25.681Z,47.60
2023-03-31T18:29:52.395Z,47.49
2023-03-31T18:32:18.868Z,47.72
2023-03-31T18:34:45.674Z,47.46
2023-03-31T18:37:12.498Z,47.59
2023-03-31T18:39:38.915Z,47.97
2023-03-31T18:42:05.493Z,47.48
2023-03-31T18:44:32.237Z,47.91
2023-03-31T18:46:58.645Z,47.79
2023-03-31T18:49:25.296Z,47.51
2023-03-31T18:51:52.011Z,47.94
2023-03-31T18:54:18.407Z,47.79
2023-03-31T18:56:44.806Z,48.17
2023-03-31T18:59:11.143Z,47.90
2023-03-31T19:01:40.111Z,48.20
2023-03-31T19:04:07.659Z,48.49
2023-03-31T19:06:34.180Z,48.28
2023-03-31T19:09:01.194Z,48.65
2023-03-31T19:11:28.790Z,48.26
2023-03-31T19:13:55.941Z,48.50
2023-03-31T19:16:24.437Z,48.94
2023-03-31T19:18:51.121Z,48.97
2023-03-31T19:21:17.447Z,48.54
2023-03-31T19:23:44.388Z,48.41
2023-03-31T19:26:15.761Z,48.61
2023-03-31T19:28:42.399Z,48.74
2023-03-31T19:31:10.669Z,48.84
2023-03-31T19:33:37.375Z,48.89
2023-03-31T19:36:03.862Z,49.22
2023-03-31T19:38:32.434Z,48.82
2023-03-31T19:41:00.162Z,49.38
2023-03-31T19:43:27.691Z,48.89
2023-03-31T19:45:57.495Z,48.87
2023-03-31T19:48:26.174Z,48.81
2023-03-31T19:50:59.533Z,48.72
2023-03-31T19:53:27.183Z,48.92
2023-03-31T19:56:02.988Z,49.15
2023-03-31T19:58:30.985Z,49.12
2023-03-31T20:00:57.925Z,48.72
2023-03-31T20:03:25.877Z,49.06
2023-03-31T20:05:54.004Z,49.46
2023-03-31T20:08:20.701Z,49.16
2023-03-31T20:10:47.323Z,49.39
2023-03-31T20:13:13.694Z,49.24
2023-03-31T20:15:41.077Z,49.38
2023-03-31T20:18:07.838Z,49.02
2023-03-31T20:20:34.297Z,49.33
2023-03-31T20:23:00.936Z,49.38
2023-03-31T20:25:27.484Z,49.35
2023-03-31T20:27:53.951Z,48.90
2023-03-31T20:30:20.550Z,49.10
2023-03-31T20:32:47.151Z,49.02
2023-03-31T20:35:13.564Z,49.01
2023-03-31T20:37:39.946Z,49.12
2023-03-31T20:40:06.959Z,48.59
2023-03-31T20:42:33.322Z,48.87
2023-03-31T20:44:59.914Z,48.95
2023-03-31T20:47:26.468Z,48.85
2023-03-31T20:49:52.913Z,48.79
2023-03-31T20:52:19.258Z,48.65
2023-03-31T20:54:45.820Z,48.67
2023-03-31T20:57:12.224Z,48.87
2023-03-31T20:59:39.338Z,49.00
2023-03-31T21:02:06.306Z,48.92
2023-03-31T21:04:32.874Z,48.67
2023-03-31T21:06:59.276Z,48.86
2023-03-31T21:09:25.844Z,48.86
2023-03-31T21:11:52.567Z,48.91
2023-03-31T21:14:19.172Z,49.10
2023-03-31T21:16:45.760Z,49.03
2023-03-31T21:19:12.427Z,49.13
2023-03-31T21:21:41.068Z,48.72
2023-03-31T21:24:09.063Z,48.75
2023-03-31T21:26:35.476Z,48.73
2023-03-31T21:29:01.874Z,49.35
2023-03-31T21:31:28.361Z,49.09
2023-03-31T21:33:57.684Z,48.97
2023-03-31T21:36:25.219Z,49.23
2023-03-31T21:38:57.489Z,49.25
2023-03-31T21:41:29.742Z,49.47
2023-03-31T21:43:57.962Z,49.00
2023-03-31T21:46:27.346Z,49.47
2023-03-31T21:48:54.686Z,49.31
2023-03-31T21:51:22.382Z,49.38
2023-03-31T21:53:50.105Z,48.94
2023-03-31T21:56:16.519Z,49.30
2023-03-31T21:58:43.154Z,48.97
2023-03-31T22:01:09.900Z,49.61
2023-03-31T22:03:36.711Z,49.48
2023-03-31T22:06:07.024Z,49.70
2023-03-31T22:08:34.702Z,49.56
2023-03-31T22:11:01.097Z,49.52
2023-03-31T22:13:28.530Z,49.34
2023-03-31T22:15:56.335Z,49.77
2023-03-31T22:18:23.052Z,49.47
2023-03-31T22:20:50.734Z,49.61
2023-03-31T22:23:17.721Z,49.48
2023-03-31T22:25:44.098Z,49.63
2023-03-31T22:28:10.914Z,49.64
2023-03-31T22:30:37.863Z,49.68
2023-03-31T22:33:04.506Z,49.59
2023-03-31T22:35:31.238Z,49.58
2023-03-31T22:37:57.947Z,49.60
2023-03-31T22:40:24.660Z,49.93
2023-03-31T22:42:51.035Z,50.07
2023-03-31T22:45:17.722Z,50.05
2023-03-31T22:47:44.182Z,50.01
2023-03-31T22:50:11.327Z,49.74
2023-03-31T22:52:38.070Z,49.99
2023-03-31T22:55:05.402Z,49.93
2023-03-31T22:57:32.321Z,49.98
2023-03-31T22:59:58.969Z,49.71
2023-03-31T23:02:25.427Z,49.80
2023-03-31T23:04:51.814Z,49.92
2023-03-31T23:07:18.180Z,49.56
2023-03-31T23:09:44.512Z,49.51
2023-03-31T23:12:10.935Z,49.84
2023-03-31T23:14:37.598Z,49.82
2023-03-31T23:17:04.088Z,49.64
2023-03-31T23:19:30.695Z,49.79
2023-03-31T23:21:58.321Z,49.57
2023-03-31T23:24:26.046Z,50.08
2023-03-31T23:26:52.466Z,49.79
2023-03-31T23:29:18.818Z,49.71
2023-03-31T23:31:45.460Z,49.95
2023-03-31T23:34:13.889Z,49.94
2023-03-31T23:36:40.488Z,49.63
2023-03-31T23:39:06.831Z,49.65
2023-03-31T23:41:33.580Z,49.98
2023-03-31T23:44:00.583Z,49.52
2023-03-31T23:46:26.959Z,50.01
2023-03-31T23:48:53.675Z,49.79
2023-03-31T23:51:20.376Z,49.60
2023-03-31T23:53:46.801Z,49.49
2023-03-31T23:56:13.936Z,49.42
2023-03-31T23:58:42.821Z,49.50
